Time;durP1;ratioP1;P1;durP2;ratioP2;P2;SDS_P1;SDS_P2;PMS_P1;PMS_P2;Temp;Humidity;BMP_temperature;BMP_pressure;BME280_temperature;BME280_humidity;BME280_pressure;Samples;Min_cycle;Max_cycle;Signal;HPM_P1;HPM_P2
2021/12/02 00:00:10;;;;;;;1.70;0.70;;;;;;;7.00;79.07;97039.69;5039767;27;102942;-63
2021/12/02 00:02:41;;;;;;;1.83;0.80;;;;;;;6.80;79.14;97046.59;5036342;27;102693;-63
2021/12/02 00:05:11;;;;;;;1.67;0.70;;;;;;;6.97;79.80;97048.66;5039128;27;103228;-63
2021/12/02 00:07:39;;;;;;;1.83;0.80;;;;;;;6.94;78.97;97048.06;5035738;27;103207;-63
2021/12/02 00:10:10;;;;;;;2.50;0.90;;;;;;;6.89;79.68;97050.25;5035041;27;102643;-63
2021/12/02 00:12:38;;;;;;;2.80;0.60;;;;;;;6.82;79.98;97049.13;5035409;27;102619;-63
2021/12/02 00:15:12;;;;;;;1.37;0.80;;;;;;;6.70;80.61;97050.13;5036304;27;103237;-63
2021/12/02 00:17:41;;;;;;;2.60;0.83;;;;;;;6.75;80.81;97040.06;5037716;27;103202;-63
2021/12/02 00:23:32;;;;;;;2.60;0.80;;;;;;;6.62;81.06;97042.88;5018718;27;102945;-63
2021/12/02 00:26:03;;;;;;;0.87;0.70;;;;;;;6.64;81.63;97038.34;5016740;27;103242;-63
2021/12/02 00:28:32;;;;;;;1.83;0.80;;;;;;;6.62;81.36;97042.88;5037890;27;103245;-67
2021/12/02 00:31:02;;;;;;;2.47;0.80;;;;;;;6.61;81.12;97040.38;5030991;27;102602;-67
2021/12/02 00:33:32;;;;;;;2.10;0.90;;;;;;;6.60;81.58;97044.78;5036308;27;102767;-67
2021/12/02 00:36:07;;;;;;;2.47;0.77;;;;;;;6.44;81.82;97054.88;5035907;27;102977;-67
2021/12/02 00:38:35;;;;;;;2.27;0.80;;;;;;;6.40;82.16;97059.53;5038659;27;103361;-67
2021/12/02 00:41:03;;;;;;;1.13;0.60;;;;;;;6.46;81.90;97057.38;5040213;27;102831;-67
2021/12/02 00:43:33;;;;;;;1.20;0.93;;;;;;;6.22;82.42;97068.06;5039464;27;102558;-67
2021/12/02 00:46:05;;;;;;;0.63;0.60;;;;;;;6.34;82.69;97070.50;5037727;27;104414;-64
2021/12/02 00:48:35;;;;;;;2.40;0.90;;;;;;;6.11;83.51;97068.94;5039036;27;103240;-63
2021/12/02 00:51:06;;;;;;;1.57;0.70;;;;;;;6.31;82.90;97064.69;5040151;27;102678;-63
2021/12/02 00:53:38;;;;;;;1.37;1.07;;;;;;;6.40;82.42;97070.03;5038709;27;102646;-63
2021/12/02 00:56:07;;;;;;;3.13;1.17;;;;;;;6.33;82.53;97068.88;5019559;27;103985;-63
2021/12/02 00:58:35;;;;;;;2.60;1.10;;;;;;;6.31;82.47;97070.78;5034778;27;103670;-63
2021/12/02 01:01:04;;;;;;;2.07;1.17;;;;;;;6.35;82.59;97077.44;5035868;27;102950;-63
2021/12/02 01:03:35;;;;;;;1.53;0.80;;;;;;;6.39;82.38;97072.78;5035748;27;102605;-63
2021/12/02 01:06:07;;;;;;;2.70;1.10;;;;;;;6.32;82.60;97069.81;5038080;27;103962;-64
2021/12/02 01:08:36;;;;;;;1.03;0.70;;;;;;;6.40;82.79;97072.66;5036003;27;103194;-63
2021/12/02 01:11:07;;;;;;;1.53;0.70;;;;;;;6.27;83.16;97074.59;5016338;27;102637;-63
2021/12/02 01:13:35;;;;;;;1.27;0.60;;;;;;;6.29;82.22;97067.44;5037271;27;102722;-63
2021/12/02 01:16:07;;;;;;;0.80;0.67;;;;;;;6.27;82.56;97073.75;5037310;27;103963;-63
2021/12/02 01:18:35;;;;;;;1.07;0.87;;;;;;;6.17;82.25;97068.44;5037622;27;102986;-63
2021/12/02 01:21:06;;;;;;;1.20;0.67;;;;;;;6.32;82.53;97064.56;5039513;27;102628;-63
2021/12/02 01:23:34;;;;;;;1.13;0.77;;;;;;;6.25;82.23;97073.06;5036411;27;103619;-63
2021/12/02 01:26:06;;;;;;;0.77;0.70;;;;;;;6.27;82.88;97058.88;5020094;27;104060;-63
2021/12/02 01:28:35;;;;;;;1.53;0.60;;;;;;;6.30;82.90;97063.88;5035376;27;103116;-63
2021/12/02 01:31:04;;;;;;;3.83;0.90;;;;;;;6.31;83.61;97062.91;5039067;27;102609;-63
2021/12/02 01:33:35;;;;;;;2.07;0.87;;;;;;;6.32;83.28;97072.44;5037231;27;102675;-64
2021/12/02 01:36:06;;;;;;;1.30;0.77;;;;;;;6.27;84.03;97073.75;5038532;27;104143;-67
2021/12/02 01:38:34;;;;;;;2.67;0.80;;;;;;;6.19;83.77;97071.75;5034414;27;104084;-67
2021/12/02 01:41:06;;;;;;;1.47;1.00;;;;;;;6.13;83.59;97071.41;5039387;27;102597;-67
2021/12/02 01:43:47;;;;;;;1.67;0.87;;;;;;;6.24;83.77;97085.34;5021154;27;102777;-67
2021/12/02 01:46:17;;;;;;;0.67;0.50;;;;;;;6.31;83.47;97081.28;5017294;27;103240;-67
2021/12/02 01:48:51;;;;;;;1.43;0.70;;;;;;;6.36;83.22;97089.59;5037124;27;103853;-67
2021/12/02 01:51:23;;;;;;;0.97;0.80;;;;;;;6.36;83.12;97086.97;5034579;27;102644;-67
2021/12/02 01:53:52;;;;;;;2.10;0.73;;;;;;;6.38;83.44;97095.56;5020077;27;103048;-67
2021/12/02 01:56:21;;;;;;;2.03;0.87;;;;;;;6.43;83.29;97095.16;5036362;27;103307;-67
2021/12/02 01:58:51;;;;;;;2.50;0.90;;;;;;;6.40;83.35;97093.63;5015345;27;103207;-67
2021/12/02 02:01:22;;;;;;;1.43;1.00;;;;;;;6.41;83.52;97091.84;5011593;27;102797;-67
2021/12/02 02:03:53;;;;;;;1.63;0.80;;;;;;;6.29;83.74;97088.41;5032209;27;104096;-67
2021/12/02 02:06:28;;;;;;;3.10;0.80;;;;;;;6.29;84.44;97088.41;5039813;27;106118;-67
2021/12/02 02:08:58;;;;;;;1.53;0.80;;;;;;;6.27;84.68;97085.09;5022482;27;103284;-67
2021/12/02 02:11:27;;;;;;;2.60;0.80;;;;;;;6.21;84.58;97085.56;5039767;27;102651;-67
2021/12/02 02:13:57;;;;;;;2.13;0.90;;;;;;;6.16;84.02;97092.97;5041831;27;102612;-67
2021/12/02 02:16:26;;;;;;;3.17;0.87;;;;;;;6.13;84.04;97093.22;5040706;27;104067;-67
2021/12/02 02:18:54;;;;;;;2.23;0.80;;;;;;;6.17;84.40;97104.31;5021978;27;103407;-67
2021/12/02 02:21:24;;;;;;;2.43;0.77;;;;;;;6.06;84.61;97094.69;5041212;27;102636;-66
2021/12/02 02:23:56;;;;;;;5.27;1.07;;;;;;;6.16;84.10;97085.13;5042303;27;104047;-67
2021/12/02 02:26:26;;;;;;;1.60;0.80;;;;;;;5.95;84.40;97086.81;5042016;27;103396;-67
2021/12/02 02:28:55;;;;;;;1.20;1.00;;;;;;;6.00;84.23;97089.91;5022851;27;103237;-67
2021/12/02 02:31:25;;;;;;;1.43;0.73;;;;;;;5.91;83.54;97089.78;5036394;27;103637;-67
2021/12/02 02:33:53;;;;;;;0.77;0.70;;;;;;;5.89;84.13;97091.72;5034005;27;102860;-67
2021/12/02 02:36:28;;;;;;;3.50;0.77;;;;;;;5.84;83.97;97092.88;5041656;27;103265;-67
2021/12/02 02:38:57;;;;;;;3.03;0.80;;;;;;;5.85;83.92;97098.97;5042150;27;102995;-67
2021/12/02 02:41:27;;;;;;;1.23;0.80;;;;;;;5.84;83.75;97092.03;5020786;27;102664;-67
2021/12/02 02:43:58;;;;;;;0.97;0.67;;;;;;;5.79;84.26;97091.56;5041661;27;102679;-66
2021/12/02 02:46:29;;;;;;;1.13;0.50;;;;;;;5.82;84.03;97093.94;5038639;27;103258;-67
2021/12/02 02:48:59;;;;;;;0.97;0.47;;;;;;;5.83;84.21;97098.25;5041311;27;103820;-67
2021/12/02 02:51:31;;;;;;;0.60;0.50;;;;;;;5.72;84.04;97093.00;5039402;27;102658;-67
2021/12/02 02:54:04;;;;;;;0.60;0.57;;;;;;;5.66;85.03;97093.47;5022235;27;102755;-67
2021/12/02 02:56:36;;;;;;;1.27;0.50;;;;;;;5.54;85.93;97091.78;5041713;27;104126;-67
2021/12/02 02:59:12;;;;;;;2.47;0.70;;;;;;;5.60;85.43;97091.31;5022774;27;104260;-66
2021/12/02 03:01:59;;;;;;;1.37;0.60;;;;;;;5.67;85.20;97084.69;5028776;27;102713;-67
2021/12/02 03:04:35;;;;;;;0.50;0.40;;;;;;;5.59;85.46;97089.66;5037899;27;102611;-66
2021/12/02 03:07:10;;;;;;;0.90;0.60;;;;;;;5.52;85.59;97081.44;5037513;27;103224;-67
2021/12/02 03:10:02;;;;;;;1.00;0.40;;;;;;;5.54;86.18;97073.47;5036578;27;103781;-67
2021/12/02 03:12:35;;;;;;;1.70;0.70;;;;;;;5.28;86.81;97078.91;5040102;27;102662;-67
2021/12/02 03:17:54;;;;;;;1.53;0.53;;;;;;;5.23;87.63;97067.13;5039047;27;103206;-67
2021/12/02 03:20:22;;;;;;;1.27;0.50;;;;;;;5.24;87.93;97063.56;5040786;27;103304;-63
2021/12/02 03:22:52;;;;;;;1.90;0.60;;;;;;;5.26;87.92;97061.66;5039145;27;102688;-67
2021/12/02 03:25:20;;;;;;;0.53;0.53;;;;;;;5.32;87.63;97060.34;5039556;27;102576;-67
2021/12/02 03:27:55;;;;;;;0.60;0.50;;;;;;;5.19;88.32;97061.28;5039228;27;103332;-67
2021/12/02 03:30:25;;;;;;;1.07;0.40;;;;;;;5.36;87.99;97061.81;5040888;27;103230;-63
2021/12/02 03:32:53;;;;;;;0.97;0.70;;;;;;;5.27;88.43;97065.97;5020243;27;102803;-63
2021/12/02 03:35:21;;;;;;;1.90;0.87;;;;;;;5.23;88.81;97059.28;5021186;27;102990;-67
2021/12/02 03:37:49;;;;;;;2.60;0.70;;;;;;;5.30;88.30;97050.00;5041207;27;103214;-67
2021/12/02 03:40:18;;;;;;;0.90;0.57;;;;;;;5.22;87.56;97063.66;5026838;27;103174;-63
2021/12/02 03:42:49;;;;;;;1.00;0.50;;;;;;;5.25;87.83;97058.19;5043095;27;102684;-63
2021/12/02 03:45:18;;;;;;;1.23;0.50;;;;;;;5.31;87.52;97058.69;5040242;27;102623;-63
2021/12/02 03:47:46;;;;;;;1.23;0.50;;;;;;;5.22;87.36;97063.66;5039431;27;103310;-67
2021/12/02 03:50:14;;;;;;;1.93;0.50;;;;;;;5.32;87.10;97070.81;5022712;27;103239;-67
2021/12/02 03:52:43;;;;;;;0.70;0.60;;;;;;;5.32;87.30;97073.44;5040924;27;102540;-67
2021/12/02 03:55:11;;;;;;;0.73;0.50;;;;;;;5.25;87.40;97068.69;5038124;27;102644;-67
2021/12/02 03:57:40;;;;;;;1.27;0.50;;;;;;;5.20;87.18;97070.81;5039799;27;103211;-67
2021/12/02 04:00:09;;;;;;;1.07;0.50;;;;;;;5.35;87.27;97073.22;5040224;27;103234;-63
2021/12/02 04:02:41;;;;;;;1.53;0.60;;;;;;;5.33;87.28;97069.88;5040289;27;102642;-63
2021/12/02 04:05:09;;;;;;;0.57;0.50;;;;;;;5.47;86.95;97077.53;5020340;27;103221;-63
2021/12/02 04:07:37;;;;;;;0.60;0.50;;;;;;;5.48;86.84;97076.56;5022186;27;103119;-64
2021/12/02 04:10:06;;;;;;;2.47;0.60;;;;;;;5.32;87.13;97070.81;5038915;27;103219;-67
2021/12/02 04:12:45;;;;;;;1.77;1.00;;;;;;;5.24;88.02;97072.28;5038589;27;102678;-67
2021/12/02 04:15:23;;;;;;;1.07;0.50;;;;;;;5.38;87.99;97072.97;5036600;27;102622;-67
2021/12/02 04:17:51;;;;;;;1.00;0.60;;;;;;;5.40;87.40;97071.06;5018436;27;103386;-67
2021/12/02 04:20:23;;;;;;;0.83;0.50;;;;;;;5.50;87.33;97074.66;5039830;27;103151;-67
2021/12/02 04:22:52;;;;;;;0.67;0.60;;;;;;;5.51;86.86;97084.19;5035205;27;102696;-67
2021/12/02 04:25:21;;;;;;;2.20;0.70;;;;;;;5.53;86.67;97082.28;5034262;27;102660;-67
2021/12/02 04:27:50;;;;;;;1.13;0.60;;;;;;;5.55;86.70;97072.53;5024249;27;103205;-67
2021/12/02 04:30:22;;;;;;;3.60;1.03;;;;;;;5.54;86.76;97066.44;5031943;27;104586;-66
2021/12/02 04:32:51;;;;;;;1.43;0.50;;;;;;;5.49;87.07;97070.38;5032124;27;102703;-67
2021/12/02 04:35:19;;;;;;;1.30;0.50;;;;;;;5.59;86.86;97061.66;5015650;27;103079;-67
2021/12/02 04:37:51;;;;;;;3.57;0.90;;;;;;;5.43;86.88;97060.38;5019652;27;103513;-67
2021/12/02 04:40:24;;;;;;;1.07;0.60;;;;;;;5.48;87.25;97058.22;5017679;27;103191;-67
2021/12/02 04:42:52;;;;;;;0.90;0.70;;;;;;;5.51;86.95;97053.56;5020178;27;102593;-67
2021/12/02 04:45:24;;;;;;;2.40;0.60;;;;;;;5.54;86.92;97052.50;5015371;27;103275;-67
2021/12/02 04:47:52;;;;;;;0.93;0.50;;;;;;;5.39;87.14;97056.34;5032553;27;103347;-67
2021/12/02 04:50:20;;;;;;;1.10;0.50;;;;;;;5.51;87.97;97050.13;5029983;27;103227;-63
2021/12/02 04:52:49;;;;;;;0.97;0.63;;;;;;;5.37;88.08;97056.44;5037060;27;102696;-62
2021/12/02 04:55:17;;;;;;;1.90;0.90;;;;;;;5.48;87.51;97058.22;5036378;27;102639;-68
2021/12/02 04:57:45;;;;;;;1.80;0.80;;;;;;;5.16;88.44;97056.31;5035085;27;103206;-68
2021/12/02 05:00:18;;;;;;;1.30;0.60;;;;;;;5.25;88.28;97047.72;5012747;27;103725;-68
2021/12/02 05:02:47;;;;;;;4.87;1.13;;;;;;;5.27;88.41;97052.88;5016659;27;102786;-68
2021/12/02 05:05:16;;;;;;;2.53;0.60;;;;;;;5.29;88.06;97053.56;5038084;27;102942;-68
2021/12/02 05:07:45;;;;;;;2.13;0.73;;;;;;;5.24;87.89;97061.78;5036714;27;103339;-68
2021/12/02 05:10:13;;;;;;;1.00;0.90;;;;;;;5.41;87.74;97062.28;5037021;27;103230;-68
2021/12/02 05:12:42;;;;;;;1.27;0.70;;;;;;;5.37;87.29;97055.59;5037005;27;102802;-68
2021/12/02 05:15:10;;;;;;;0.87;0.73;;;;;;;5.33;87.42;97062.03;5038814;27;102666;-69
2021/12/02 05:17:38;;;;;;;1.27;0.60;;;;;;;5.17;87.67;97057.97;5036311;27;103310;-68
2021/12/02 05:20:09;;;;;;;0.90;0.50;;;;;;;5.38;87.66;97052.03;5039643;27;103196;-68
2021/12/02 05:22:37;;;;;;;0.70;0.50;;;;;;;5.36;87.64;97059.19;5038661;27;102653;-68
2021/12/02 05:25:07;;;;;;;1.00;0.50;;;;;;;5.31;87.60;97066.53;5036385;27;102835;-68
2021/12/02 05:27:35;;;;;;;0.77;0.47;;;;;;;5.29;87.42;97056.19;5035555;27;103989;-65
2021/12/02 05:30:05;;;;;;;2.33;0.60;;;;;;;5.33;87.32;97064.66;5034306;27;103091;-65
2021/12/02 05:32:33;;;;;;;2.53;0.67;;;;;;;5.22;87.56;97063.66;5022517;27;103012;-66
2021/12/02 05:35:03;;;;;;;0.70;0.50;;;;;;;5.32;87.50;97065.59;5021381;27;102877;-66
2021/12/02 05:37:35;;;;;;;2.17;0.70;;;;;;;5.34;87.41;97063.69;5017978;27;103214;-65
2021/12/02 05:40:04;;;;;;;1.57;0.70;;;;;;;5.17;87.53;97060.56;5031249;27;103008;-65
2021/12/02 05:42:32;;;;;;;0.60;0.60;;;;;;;5.17;87.53;97057.97;5037726;27;102583;-66
2021/12/02 05:45:00;;;;;;;1.10;0.53;;;;;;;5.09;87.33;97055.09;5017636;27;102853;-65
2021/12/02 05:47:28;;;;;;;2.60;0.60;;;;;;;5.09;87.68;97052.47;5036578;27;103216;-65
2021/12/02 05:49:59;;;;;;;1.30;0.60;;;;;;;4.97;87.44;97050.78;5033792;27;103422;-65
2021/12/02 05:52:27;;;;;;;2.50;0.97;;;;;;;5.03;87.43;97047.69;5033243;27;102738;-66
2021/12/02 05:54:57;;;;;;;1.50;0.70;;;;;;;5.09;87.56;97046.41;5020898;27;103703;-66
2021/12/02 05:57:26;;;;;;;1.80;0.60;;;;;;;5.00;87.51;97045.31;5017641;27;103206;-66
2021/12/02 05:59:54;;;;;;;0.60;0.60;;;;;;;4.94;88.10;97048.41;5033533;27;103207;-66
2021/12/02 06:02:22;;;;;;;1.50;0.57;;;;;;;5.03;88.41;97047.69;5033842;27;102644;-66
2021/12/02 06:04:52;;;;;;;1.20;0.60;;;;;;;4.99;89.03;97054.13;5038168;27;102635;-65
2021/12/02 06:07:20;;;;;;;1.57;0.70;;;;;;;4.95;90.37;97049.22;5038467;27;103863;-66
2021/12/02 06:09:52;;;;;;;1.00;0.50;;;;;;;5.00;90.68;97049.72;5034880;27;103203;-66
2021/12/02 06:12:22;;;;;;;1.10;0.50;;;;;;;5.01;90.95;97048.78;5032415;27;102857;-66
2021/12/02 06:14:50;;;;;;;2.70;0.60;;;;;;;4.99;90.88;97046.28;5019829;27;102896;-66
2021/12/02 06:17:18;;;;;;;0.73;0.60;;;;;;;4.98;90.61;97043.78;5037295;27;103305;-66
2021/12/02 06:19:47;;;;;;;2.17;0.70;;;;;;;4.91;91.18;97047.81;5031216;27;103226;-66
2021/12/02 06:22:15;;;;;;;0.60;0.60;;;;;;;4.95;91.00;97050.06;5011661;27;102757;-65
2021/12/02 06:24:45;;;;;;;0.90;0.70;;;;;;;5.05;90.74;97053.66;5034556;27;102969;-66
2021/12/02 06:27:14;;;;;;;1.53;0.60;;;;;;;5.12;90.75;97049.63;5011266;27;103662;-66
2021/12/02 06:29:47;;;;;;;0.77;0.53;;;;;;;5.02;89.99;97034.75;5031254;27;103298;-66
2021/12/02 06:32:15;;;;;;;0.83;0.60;;;;;;;5.03;90.03;97042.47;5033542;27;102663;-66
2021/12/02 06:34:43;;;;;;;0.60;0.60;;;;;;;5.06;90.75;97046.63;5008747;27;102784;-66
2021/12/02 06:37:11;;;;;;;0.80;0.60;;;;;;;4.95;90.27;97044.84;5034108;27;104135;-66
2021/12/02 06:39:40;;;;;;;1.07;0.57;;;;;;;5.01;89.99;97041.75;4997024;27;103601;-66
2021/12/02 06:42:08;;;;;;;2.20;0.60;;;;;;;4.98;89.58;97049.84;5029617;27;102629;-66
2021/12/02 06:44:36;;;;;;;1.10;0.83;;;;;;;5.06;89.56;97051.88;5031585;27;103799;-66
2021/12/02 06:47:05;;;;;;;1.80;0.60;;;;;;;4.93;89.59;97059.00;5025988;27;103234;-66
2021/12/02 06:49:34;;;;;;;1.63;0.60;;;;;;;4.97;89.74;97060.44;5027981;27;103283;-66
2021/12/02 06:52:05;;;;;;;1.57;0.83;;;;;;;5.07;89.47;97066.63;5025328;27;102591;-66
2021/12/02 06:54:33;;;;;;;3.00;0.77;;;;;;;5.20;88.91;97060.34;5017793;27;102712;-66
2021/12/02 06:57:02;;;;;;;3.13;0.90;;;;;;;5.22;88.57;97052.41;5016886;27;103019;-66
2021/12/02 06:59:30;;;;;;;1.47;0.77;;;;;;;5.25;88.45;97042.50;5007459;27;103231;-68
2021/12/02 07:01:59;;;;;;;1.67;1.10;;;;;;;5.15;88.84;97052.03;5033219;27;102722;-69
2021/12/02 07:04:29;;;;;;;0.63;0.57;;;;;;;5.11;88.93;97057.59;5028237;27;102618;-69
2021/12/02 07:06:59;;;;;;;1.67;0.70;;;;;;;5.03;88.86;97058.19;5031894;27;103258;-68
2021/12/02 07:09:27;;;;;;;0.87;0.60;;;;;;;4.94;89.71;97048.41;5031694;27;103186;-69
2021/12/02 07:11:55;;;;;;;1.03;0.37;;;;;;;5.06;89.15;97051.88;5033214;27;102586;-69
2021/12/02 07:14:25;;;;;;;1.43;0.67;;;;;;;5.01;89.10;97049.63;5038459;27;102663;-69
2021/12/02 07:16:53;;;;;;;0.70;0.63;;;;;;;5.04;89.44;97057.22;5037901;27;103274;-69
2021/12/02 07:19:21;;;;;;;0.63;0.50;;;;;;;5.07;88.83;97064.84;5039560;27;103271;-69
2021/12/02 07:21:51;;;;;;;0.60;0.60;;;;;;;5.14;88.64;97063.44;5018864;27;102698;-69
2021/12/02 07:24:19;;;;;;;2.27;0.70;;;;;;;5.17;88.24;97075.44;5039581;27;104217;-70
2021/12/02 07:27:06;;;;;;;1.60;0.83;;;;;;;5.20;88.25;97076.06;5035650;27;103219;-70
2021/12/02 07:29:35;;;;;;;0.97;0.97;;;;;;;5.26;87.70;97075.59;5018668;27;103439;-70
2021/12/02 07:32:06;;;;;;;0.50;0.50;;;;;;;5.26;87.67;97080.00;5033306;27;102609;-70
2021/12/02 07:34:37;;;;;;;0.77;0.43;;;;;;;5.37;87.22;97077.38;5035755;27;102659;-70
2021/12/02 07:37:06;;;;;;;1.03;0.93;;;;;;;5.43;86.94;97082.16;5037298;27;103207;-70
2021/12/02 07:39:35;;;;;;;0.50;0.50;;;;;;;5.61;85.73;97085.97;5017299;27;105062;-69
2021/12/02 07:42:24;;;;;;;0.77;0.77;;;;;;;5.60;86.19;97086.09;5014011;27;103049;-65
2021/12/02 07:44:55;;;;;;;1.47;0.70;;;;;;;5.64;85.86;97080.47;5010363;27;103135;-66
2021/12/02 07:47:24;;;;;;;1.97;0.77;;;;;;;5.64;85.59;97077.84;5037373;27;103249;-65
2021/12/02 07:49:52;;;;;;;2.17;0.90;;;;;;;5.69;85.55;97085.38;5037619;27;103469;-65
2021/12/02 07:52:26;;;;;;;2.57;0.70;;;;;;;5.63;85.91;97078.00;5034376;27;103018;-65
2021/12/02 07:54:56;;;;;;;2.00;0.70;;;;;;;5.62;86.00;97081.56;5036606;27;103862;-64
2021/12/02 07:57:26;;;;;;;2.77;0.87;;;;;;;5.67;86.03;97085.47;5034198;27;103969;-65
2021/12/02 07:59:54;;;;;;;0.87;0.67;;;;;;;5.64;86.46;97079.66;5030101;27;103259;-65
2021/12/02 08:02:23;;;;;;;4.30;1.20;;;;;;;5.73;86.65;97084.16;5018372;27;102715;-65
2021/12/02 08:04:51;;;;;;;1.13;0.90;;;;;;;5.70;86.42;97079.16;5027345;27;102940;-65
2021/12/02 08:07:19;;;;;;;0.90;0.77;;;;;;;5.70;86.51;97092.25;5033285;27;103901;-65
2021/12/02 08:09:49;;;;;;;0.70;0.70;;;;;;;5.73;86.33;97090.25;5031647;27;103218;-65
2021/12/02 08:12:17;;;;;;;1.10;0.80;;;;;;;5.74;86.02;97086.69;5028023;27;102686;-65
2021/12/02 08:14:45;;;;;;;0.90;0.67;;;;;;;5.79;85.48;97088.94;5028368;27;102934;-65
2021/12/02 08:17:13;;;;;;;0.80;0.63;;;;;;;5.82;85.87;97093.94;5033054;27;103247;-65
2021/12/02 08:19:42;;;;;;;0.70;0.60;;;;;;;5.81;85.55;97108.00;5032008;27;103292;-65
2021/12/02 08:22:10;;;;;;;1.00;0.73;;;;;;;5.84;85.97;97099.88;5036824;27;102914;-65
2021/12/02 08:24:38;;;;;;;1.13;0.90;;;;;;;5.88;85.94;97098.75;5037712;27;103852;-65
2021/12/02 08:27:10;;;;;;;1.33;0.97;;;;;;;5.85;85.44;97093.72;5034226;27;103888;-65
2021/12/02 08:29:38;;;;;;;1.57;0.90;;;;;;;5.94;85.43;97095.63;5035403;27;103332;-65
2021/12/02 08:32:07;;;;;;;0.53;0.53;;;;;;;6.01;85.15;97093.34;5038949;27;103011;-65
2021/12/02 08:34:35;;;;;;;0.83;0.53;;;;;;;6.05;84.69;97100.88;5013230;27;103194;-65
2021/12/02 08:37:04;;;;;;;0.70;0.60;;;;;;;6.02;84.61;97106.34;5017955;27;103170;-65
2021/12/02 08:39:32;;;;;;;1.00;0.57;;;;;;;6.07;84.75;97093.69;5034478;27;103981;-65
2021/12/02 08:42:02;;;;;;;2.20;0.83;;;;;;;6.00;84.32;97095.16;5038297;27;102639;-65
2021/12/02 08:44:34;;;;;;;1.00;0.83;;;;;;;6.04;84.33;97093.94;5037676;27;102695;-65
2021/12/02 08:47:03;;;;;;;6.93;1.30;;;;;;;5.92;84.85;97094.09;5032382;27;103279;-65
2021/12/02 08:49:31;;;;;;;3.40;1.10;;;;;;;5.88;85.03;97098.75;5037964;27;103225;-66
2021/12/02 08:51:59;;;;;;;2.07;1.87;;;;;;;5.82;84.88;97091.31;5032711;27;102933;-65
2021/12/02 08:54:28;;;;;;;3.63;2.77;;;;;;;5.83;85.01;97098.25;5038861;27;102612;-65
2021/12/02 08:56:56;;;;;;;2.33;1.53;;;;;;;5.91;85.07;97098.50;5031171;27;103805;-66
2021/12/02 08:59:24;;;;;;;4.63;1.57;;;;;;;5.83;85.54;97095.63;5035670;27;103755;-65
2021/12/02 09:01:54;;;;;;;3.40;1.80;;;;;;;5.90;85.20;97090.75;5040308;27;102641;-65
2021/12/02 09:04:23;;;;;;;2.70;2.47;;;;;;;5.84;85.88;97097.25;5037884;27;103866;-65
2021/12/02 09:06:51;;;;;;;2.80;1.80;;;;;;;5.90;85.99;97088.97;5038764;27;103159;-65
2021/12/02 09:09:25;;;;;;;1.33;1.20;;;;;;;6.09;85.70;97086.53;5015674;27;103303;-65
2021/12/02 09:11:57;;;;;;;2.23;1.30;;;;;;;6.27;84.41;97079.00;5038735;27;102597;-65
2021/12/02 09:14:25;;;;;;;1.47;1.10;;;;;;;6.30;84.00;97086.63;5039946;27;102706;-65
2021/12/02 09:16:56;;;;;;;1.77;1.57;;;;;;;6.27;84.88;97095.56;5036973;27;103252;-65
2021/12/02 09:19:24;;;;;;;3.23;2.10;;;;;;;6.30;84.27;97095.34;5039168;27;103241;-65
2021/12/02 09:21:53;;;;;;;3.30;3.00;;;;;;;6.29;84.45;97109.41;5037947;27;102803;-65
2021/12/02 09:24:21;;;;;;;3.27;2.53;;;;;;;6.46;84.42;97104.59;5034836;27;102775;-65
2021/12/02 09:26:53;;;;;;;2.63;2.10;;;;;;;6.46;85.06;97104.59;5038323;27;103233;-65
2021/12/02 09:29:22;;;;;;;2.27;1.53;;;;;;;6.38;85.07;97113.91;5035915;27;103308;-65
2021/12/02 09:31:52;;;;;;;3.40;2.30;;;;;;;6.20;85.62;97104.88;5009859;27;102731;-65
2021/12/02 09:34:22;;;;;;;2.47;1.37;;;;;;;6.28;86.00;97117.41;5014706;27;103038;-65
2021/12/02 09:36:55;;;;;;;2.07;1.60;;;;;;;6.15;86.37;97111.44;5032709;27;103245;-65
2021/12/02 09:39:29;;;;;;;1.77;1.67;;;;;;;6.13;87.28;97111.56;5017184;27;104170;-66
2021/12/02 09:41:59;;;;;;;1.50;1.20;;;;;;;5.80;87.68;97116.81;5039829;27;102719;-66
2021/12/02 09:44:30;;;;;;;1.93;1.67;;;;;;;5.90;87.91;97123.03;5020099;27;104319;-67
2021/12/02 09:46:58;;;;;;;2.60;2.40;;;;;;;5.83;90.04;97129.69;5034537;27;103268;-67
2021/12/02 09:49:28;;;;;;;1.67;1.47;;;;;;;6.00;89.16;97126.63;5035713;27;103093;-67
2021/12/02 09:52:02;;;;;;;3.10;1.17;;;;;;;5.66;90.62;97138.00;5035405;27;102676;-67
2021/12/02 09:54:37;;;;;;;2.00;1.80;;;;;;;5.04;94.03;97146.22;5039948;27;102854;-67
2021/12/02 09:57:07;;;;;;;3.13;1.77;;;;;;;4.75;94.36;97157.16;5039856;27;103229;-67
2021/12/02 09:59:46;;;;;;;1.67;1.40;;;;;;;4.47;94.18;97163.56;5038758;27;103191;-67
2021/12/02 10:02:18;;;;;;;3.00;1.60;;;;;;;4.73;94.59;97159.06;5015402;27;102671;-66
2021/12/02 10:04:52;;;;;;;3.60;1.40;;;;;;;4.78;95.05;97152.53;5038432;27;102773;-66
2021/12/02 10:07:25;;;;;;;4.20;1.10;;;;;;;4.87;95.54;97162.34;5039307;27;103969;-67
2021/12/02 10:10:02;;;;;;;1.03;0.77;;;;;;;4.64;94.20;97160.56;5037133;27;103202;-67
2021/12/02 10:12:33;;;;;;;1.13;1.00;;;;;;;4.50;96.24;97158.94;5018858;27;102735;-67
2021/12/02 10:15:07;;;;;;;1.57;0.80;;;;;;;4.53;96.97;97163.13;5037689;27;103876;-66
2021/12/02 10:17:41;;;;;;;1.10;1.00;;;;;;;4.42;95.47;97163.91;5018942;27;103221;-67
2021/12/02 10:20:17;;;;;;;0.90;0.73;;;;;;;4.36;96.06;97166.09;5038639;27;103033;-67
2021/12/02 10:23:05;;;;;;;1.30;0.90;;;;;;;4.63;96.03;97164.13;5017348;27;103834;-66
2021/12/02 10:25:35;;;;;;;1.00;0.70;;;;;;;4.54;96.23;97164.78;5017361;27;102697;-67
2021/12/02 10:28:08;;;;;;;0.90;0.80;;;;;;;4.42;96.29;97158.66;5037334;27;103203;-67
2021/12/02 10:30:40;;;;;;;1.60;1.20;;;;;;;4.51;95.54;97155.41;5023525;27;104043;-66
2021/12/02 10:33:09;;;;;;;2.20;0.97;;;;;;;4.61;96.60;97150.31;5040726;27;102665;-67
2021/12/02 10:35:44;;;;;;;1.00;0.90;;;;;;;4.71;96.01;97156.56;5038144;27;103840;-66
2021/12/02 10:38:34;;;;;;;1.17;0.77;;;;;;;4.61;95.00;97156.38;5040117;27;103252;-66
2021/12/02 10:41:06;;;;;;;1.23;1.00;;;;;;;4.72;95.40;97160.84;5034400;27;103350;-66
2021/12/02 10:43:34;;;;;;;1.67;0.80;;;;;;;4.77;96.13;97158.75;5042069;27;102601;-66
2021/12/02 10:46:17;;;;;;;0.83;0.83;;;;;;;4.78;95.45;97157.78;5020843;27;102689;-67
2021/12/02 10:48:48;;;;;;;2.03;0.90;;;;;;;4.80;96.37;97158.50;5023482;27;103225;-64
2021/12/02 10:51:40;;;;;;;2.50;0.90;;;;;;;4.91;95.98;97157.72;5023564;27;103227;-64
2021/12/02 10:54:13;;;;;;;1.10;0.93;;;;;;;4.80;95.20;97158.50;5022589;27;102724;-64
2021/12/02 10:56:46;;;;;;;1.87;1.10;;;;;;;4.72;95.52;97160.84;5020220;27;102667;-65
2021/12/02 10:59:35;;;;;;;1.20;1.10;;;;;;;4.71;95.27;97167.03;5018419;27;103265;-65
2021/12/02 11:02:07;;;;;;;2.87;1.53;;;;;;;4.60;95.83;97161.75;5041755;27;103184;-65
2021/12/02 11:04:39;;;;;;;1.07;0.97;;;;;;;4.73;95.92;97164.28;5041062;27;102714;-64
2021/12/02 11:07:13;;;;;;;0.87;0.80;;;;;;;4.74;96.99;97160.75;5039229;27;102728;-65
2021/12/02 11:09:41;;;;;;;1.23;1.13;;;;;;;4.63;95.99;97154.50;5041254;27;103998;-64
2021/12/02 11:12:22;;;;;;;1.43;1.17;;;;;;;4.80;95.59;97165.53;5043008;27;103207;-65
2021/12/02 11:15:01;;;;;;;1.97;1.30;;;;;;;4.81;96.67;97161.94;5020163;27;102656;-65
2021/12/02 11:17:33;;;;;;;2.03;1.00;;;;;;;4.69;95.54;97164.50;5022378;27;103981;-64
2021/12/02 11:20:07;;;;;;;1.00;0.93;;;;;;;4.56;93.99;97157.66;5041081;27;103289;-64
2021/12/02 11:22:37;;;;;;;1.30;1.20;;;;;;;4.49;94.84;97166.91;5037876;27;103230;-64
2021/12/02 11:25:09;;;;;;;1.37;0.83;;;;;;;4.38;95.44;97170.28;5041620;27;102641;-64
2021/12/02 11:27:40;;;;;;;1.33;1.23;;;;;;;4.52;96.19;97166.69;5042725;27;102848;-64
2021/12/02 11:30:11;;;;;;;1.50;0.97;;;;;;;4.58;95.28;97163.63;5041105;27;103269;-64
2021/12/02 11:32:58;;;;;;;2.17;1.37;;;;;;;4.25;94.99;97171.25;5037699;27;103141;-64
2021/12/02 11:35:33;;;;;;;1.30;1.20;;;;;;;4.04;97.43;97166.59;5038592;27;102649;-64
2021/12/02 11:38:08;;;;;;;1.43;1.20;;;;;;;3.82;98.28;97158.59;5039575;27;102661;-64
2021/12/02 11:40:40;;;;;;;1.43;1.00;;;;;;;4.14;97.22;97166.81;5041727;27;103228;-64
2021/12/02 11:43:10;;;;;;;1.23;1.00;;;;;;;4.02;97.58;97152.81;5041200;27;103031;-64
2021/12/02 11:45:46;;;;;;;1.03;1.00;;;;;;;4.16;97.47;97161.44;5037201;27;102623;-64
2021/12/02 11:48:16;;;;;;;1.33;1.17;;;;;;;4.25;97.52;97164.25;5008594;27;103186;-64
2021/12/02 11:50:47;;;;;;;2.60;1.33;;;;;;;4.57;96.82;97154.13;5029835;27;103091;-64
2021/12/02 11:53:21;;;;;;;1.83;1.00;;;;;;;4.55;96.58;97140.28;5026539;27;103230;-64
2021/12/02 11:55:53;;;;;;;1.90;1.50;;;;;;;4.35;96.78;97138.31;5010272;27;103679;-64